^^
Station Historical Data
Daily Summary for April 15, 2017 Units:  Metric    English   Both
« Previous Day
Next Day »
Daily Weekly Monthly Yearly Custom
  High: Low: Average:
Temperature: 27.9 °C 13.4 °C 19.5 °C
Dew Point: 3 °C -4.2 °C -0.3 °C
Humidity: 42% 18% 27%
Wind Speed: 22.7km/h 0km/h 6km/h
Wind Gust: 22.7km/h - -
Wind- - ESE
Pressure: 1020.2 hPa 1014.8 hPa -
Precipitation: 0 mm    
Historical Graphs
 
 
Tabular Data for April 15, 2017
Time Temperature Dew Point Pressure Wind Wind Speed Wind Gust Humidity Rainfall Rate (Hourly) solar Conditions
00:36 16.8 °C 0 °C 1018.8 hPa ESE 13 km/h 13 km/h 32% 0 mm 0.0 W/m2
00:41 16.9 °C 0.1 °C 1018.5 hPa ESE 11.1 km/h 14.5 km/h 32% 0 mm 0.0 W/m2
00:46 16.9 °C -0.3 °C 1018.8 hPa ESE 14.3 km/h 16.1 km/h 31% 0 mm 0.0 W/m2
00:51 16.9 °C -0.8 °C 1018.8 hPa ESE 11.1 km/h 17.7 km/h 30% 0 mm 0.0 W/m2
00:57 16.9 °C -0.8 °C 1018.5 hPa ESE 16.3 km/h 17.7 km/h 30% 0 mm 0.0 W/m2
01:06 16.7 °C -1.9 °C 1018.5 hPa ESE 11.1 km/h 17.7 km/h 28% 0 mm 0.0 W/m2
01:10 16.8 °C -1.3 °C 1018.5 hPa ESE 13 km/h 17.7 km/h 29% 0 mm 0.0 W/m2
01:51 17 °C -2.1 °C 1018.2 hPa ESE 13 km/h 16.1 km/h 27% 0 mm 0.0 W/m2
01:56 16.9 °C -2.2 °C 1018.2 hPa ESE 11.1 km/h 12.9 km/h 27% 0 mm 0.0 W/m2
02:01 16.9 °C -2.2 °C 1018.5 hPa ESE 7.9 km/h 11.3 km/h 27% 0 mm 0.0 W/m2
02:06 16.9 °C -2.2 °C 1018.5 hPa ESE 9.7 km/h 11.3 km/h 27% 0 mm 0.0 W/m2
02:16 16.9 °C -2.2 °C 1018.5 hPa ESE 14.3 km/h 16.1 km/h 27% 0 mm 0.0 W/m2
02:26 16.8 °C -2.8 °C 1018.2 hPa ESE 14.3 km/h 17.7 km/h 26% 0 mm 0.0 W/m2
02:42 16.7 °C -2.9 °C 1018.2 hPa ESE 11.1 km/h 11.3 km/h 26% 0 mm 0.0 W/m2
02:47 16.6 °C -3 °C 1018.2 hPa ESE 11.1 km/h 11.3 km/h 26% 0 mm 0.0 W/m2
02:56 16.6 °C -3.5 °C 1018.2 hPa ESE 9.7 km/h 12.9 km/h 25% 0 mm 0.0 W/m2
03:02 16.6 °C -3.5 °C 1018.2 hPa ESE 16.3 km/h 19.3 km/h 25% 0 mm 0.0 W/m2
03:07 16.7 °C -3.4 °C 1018.2 hPa ESE 9.7 km/h 16.1 km/h 25% 0 mm 0.0 W/m2
03:12 16.7 °C -3.4 °C 1018.2 hPa ESE 11.1 km/h 14.5 km/h 25% 0 mm 0.0 W/m2
03:19 16.6 °C -3.5 °C 1018.2 hPa ESE 4.7 km/h 16.1 km/h 25% 0 mm 0.0 W/m2
03:22 16.6 °C -3.5 °C 1017.8 hPa ESE 13 km/h 14.5 km/h 25% 0 mm 0.0 W/m2
03:32 16.4 °C -4.2 °C 1017.8 hPa ESE 9.7 km/h 14.5 km/h 24% 0 mm 0.0 W/m2
03:43 16.4 °C -3.7 °C 1018.2 hPa ESE 9.7 km/h 12.9 km/h 25% 0 mm 0.0 W/m2
03:52 16.3 °C -3.8 °C 1018.2 hPa ESE 13 km/h 16.1 km/h 25% 0 mm 0.0 W/m2
05:32 14.9 °C -2.5 °C 1018.8 hPa ESE 6.4 km/h 8 km/h 30% 0 mm 0.0 W/m2
06:03 14.2 °C -1.9 °C 1018.8 hPa ESE 4.7 km/h 8 km/h 33% 0 mm 0.0 W/m2
06:08 13.9 °C -2.1 °C 1018.8 hPa ESE 6.4 km/h 8 km/h 33% 0 mm 5.0 W/m2
06:13 13.7 °C -2.7 °C 1019.2 hPa ESE 6.4 km/h 9.7 km/h 32% 0 mm 7.0 W/m2
06:18 13.5 °C -2.9 °C 1018.8 hPa ESE 6.4 km/h 8 km/h 32% 0 mm 11.0 W/m2
06:28 13.4 °C -2.6 °C 1019.2 hPa ESE 6.4 km/h 9.7 km/h 33% 0 mm 14.0 W/m2
06:33 13.5 °C -2.5 °C 1019.2 hPa ESE 4.7 km/h 8 km/h 33% 0 mm 16.0 W/m2
06:38 13.5 °C -2.5 °C 1019.2 hPa ESE 3.2 km/h 8 km/h 33% 0 mm 19.0 W/m2
06:43 13.5 °C -2.1 °C 1019.2 hPa Calm     34% 0 mm 58.0 W/m2
06:48 13.6 °C -1.6 °C 1019.2 hPa ESE 6.4 km/h 9.7 km/h 35% 0 mm 74.0 W/m2
07:12 14.8 °C 0.6 °C 1019.5 hPa ESE 1.4 km/h 8 km/h 38% 0 mm 156.0 W/m2
07:34 15.9 °C 3 °C 1019.5 hPa ESE 3.2 km/h 8 km/h 42% 0 mm 243.0 W/m2
07:49 16.8 °C 2 °C 1019.9 hPa ESE 7.9 km/h 9.7 km/h 37% 0 mm 292.0 W/m2
08:05 17.2 °C 1.2 °C 1019.9 hPa Calm   11.3 km/h 34% 0 mm 343.0 W/m2
08:14 17.5 °C 1 °C 1019.9 hPa ESE 4.7 km/h 11.3 km/h 33% 0 mm 397.0 W/m2
08:34 17.9 °C 1 °C 1020.2 hPa East 6.4 km/h 6.4 km/h 32% 0 mm 443.0 W/m2
08:45 18.3 °C 0.9 °C 1020.2 hPa East 3.2 km/h 16.1 km/h 31% 0 mm 468.0 W/m2
08:54 18.8 °C 0.9 °C 1020.2 hPa East 1.4 km/h 14.5 km/h 30% 0 mm 517.0 W/m2
09:07 19.3 °C 1.3 °C 1020.2 hPa Calm   3.2 km/h 30% 0 mm 543.0 W/m2
14:08 27.2 °C 0.8 °C 1016.1 hPa Calm   9.7 km/h 18% 0 mm 598.0 W/m2
14:29 27.6 °C 1.1 °C 1015.8 hPa NE 4.7 km/h 19.3 km/h 18% 0 mm 563.0 W/m2
14:34 27.4 °C 1 °C 1015.8 hPa Calm     18% 0 mm 540.0 W/m2
14:49 27.8 °C 2.1 °C 1015.8 hPa NE 14.3 km/h 16.1 km/h 19% 0 mm 494.0 W/m2
15:10 27.7 °C 2 °C 1015.5 hPa Calm   14.5 km/h 19% 0 mm 450.0 W/m2
15:25 27.9 °C 2.1 °C 1015.5 hPa Calm   8 km/h 19% 0 mm 403.0 W/m2
15:35 27.9 °C 2.1 °C 1015.1 hPa Calm     19% 0 mm 357.0 W/m2
15:55 27.6 °C 2.6 °C 1015.1 hPa NE 3.2 km/h 9.7 km/h 20% 0 mm 308.0 W/m2
16:20 27.9 °C 2.9 °C 1015.1 hPa Calm   12.9 km/h 20% 0 mm 195.0 W/m2
16:33 27.8 °C 2.8 °C 1015.1 hPa Calm   8 km/h 20% 0 mm 151.0 W/m2
16:41 27.5 °C 2.5 °C 1014.8 hPa Calm     20% 0 mm 111.0 W/m2
17:51 25.6 °C 2.3 °C 1015.1 hPa Calm     22% 0 mm 0.0 W/m2
18:01 25.3 °C 2.7 °C 1015.5 hPa Calm     23% 0 mm 0.0 W/m2
18:29 24.3 °C 2.4 °C 1015.5 hPa Calm     24% 0 mm 0.0 W/m2
18:45 23.3 °C 2.2 °C 1015.5 hPa Calm     25% 0 mm 0.0 W/m2
19:34 21.9 °C 2.6 °C 1015.5 hPa NE 6.4 km/h 9.7 km/h 28% 0 mm 0.0 W/m2
19:48 22.4 °C -0.4 °C 1015.5 hPa NE 9.7 km/h 17.7 km/h 22% 0 mm 0.0 W/m2
20:04 22.7 °C -1.4 °C 1015.5 hPa ENE 22.7 km/h 22.7 km/h 20% 0 mm 0.0 W/m2
20:24 22.3 °C -1.8 °C 1015.5 hPa East 16.3 km/h 22.5 km/h 20% 0 mm 0.0 W/m2
20:39 22 °C -1.3 °C 1015.8 hPa East 9.7 km/h 11.3 km/h 21% 0 mm 0.0 W/m2
20:54 21.6 °C -1.7 °C 1015.8 hPa Calm   6.4 km/h 21% 0 mm 0.0 W/m2
21:09 21.3 °C -1.3 °C 1016.1 hPa East 3.2 km/h 6.4 km/h 22% 0 mm 0.0 W/m2
21:54 20.4 °C -0.9 °C 1016.1 hPa Calm     24% 0 mm 0.0 W/m2
22:09 20.3 °C 0.7 °C 1016.1 hPa Calm     27% 0 mm 0.0 W/m2
22:16 20.6 °C 0.9 °C 1016.1 hPa East 1.4 km/h 1.6 km/h 27% 0 mm 0.0 W/m2
22:25 20.5 °C 1.4 °C 1016.1 hPa Calm     28% 0 mm 0.0 W/m2
22:40 20.1 °C 2 °C 1016.1 hPa Calm     30% 0 mm 0.0 W/m2
22:56 20.4 °C 2.2 °C 1016.1 hPa East 7.9 km/h 8 km/h 30% 0 mm 0.0 W/m2
23:01 20.7 °C 2.5 °C 1016.1 hPa East 3.2 km/h 9.7 km/h 30% 0 mm 0.0 W/m2
23:06 20.9 °C 2.2 °C 1016.1 hPa East 1.4 km/h 4.8 km/h 29% 0 mm 0.0 W/m2
23:11 20.9 °C 2.2 °C 1016.1 hPa Calm     29% 0 mm 0.0 W/m2
23:16 20.8 °C 2.1 °C 1016.1 hPa Calm     29% 0 mm 0.0 W/m2
23:26 20.8 °C 2.1 °C 1016.1 hPa East 1.4 km/h 4.8 km/h 29% 0 mm 0.0 W/m2
23:36 20.8 °C 2.6 °C 1016.1 hPa Calm   4.8 km/h 30% 0 mm 0.0 W/m2
Canyon Roadhouse, Fishriver Canyon, Namibia
Compliments of Weather Underground - 2 mb